sensor_id;sensor_type;location;lat;lon;timestamp;pressure;altitude;pressure_sealevel;temperature;humidity
63281;BME280;49406;51.044;3.766;2024-02-04T00:02:30;102687.52;;;11.50;100.00
63281;BME280;49406;51.044;3.766;2024-02-04T00:05:06;102693.86;;;11.51;100.00
63281;BME280;49406;51.044;3.766;2024-02-04T00:07:41;102688.16;;;11.48;100.00
63281;BME280;49406;51.044;3.766;2024-02-04T00:10:15;102691.07;;;11.45;100.00
63281;BME280;49406;51.044;3.766;2024-02-04T00:12:53;102692.30;;;11.46;100.00
63281;BME280;49406;51.044;3.766;2024-02-04T00:15:27;102689.77;;;11.43;100.00
63281;BME280;49406;51.044;3.766;2024-02-04T00:18:04;102695.64;;;11.42;100.00
63281;BME280;49406;51.044;3.766;2024-02-04T00:20:40;102690.46;;;11.38;100.00
63281;BME280;49406;51.044;3.766;2024-02-04T00:23:15;102694.20;;;11.35;100.00
63281;BME280;49406;51.044;3.766;2024-02-04T00:25:55;102691.05;;;11.30;100.00
63281;BME280;49406;51.044;3.766;2024-02-04T00:28:37;102699.27;;;11.30;100.00
63281;BME280;49406;51.044;3.766;2024-02-04T00:31:17;102697.70;;;11.25;100.00
63281;BME280;49406;51.044;3.766;2024-02-04T00:33:54;102696.55;;;11.27;100.00
63281;BME280;49406;51.044;3.766;2024-02-04T00:36:30;102701.98;;;11.27;100.00
63281;BME280;49406;51.044;3.766;2024-02-04T00:39:06;102699.64;;;11.25;100.00
63281;BME280;49406;51.044;3.766;2024-02-04T00:41:42;102698.89;;;11.25;100.00
63281;BME280;49406;51.044;3.766;2024-02-04T00:44:17;102693.23;;;11.23;100.00
63281;BME280;49406;51.044;3.766;2024-02-04T00:47:05;102699.02;;;11.23;100.00
63281;BME280;49406;51.044;3.766;2024-02-04T00:49:41;102698.09;;;11.26;100.00
63281;BME280;49406;51.044;3.766;2024-02-04T00:52:18;102691.70;;;11.24;100.00
63281;BME280;49406;51.044;3.766;2024-02-04T00:54:54;102693.52;;;11.25;100.00
63281;BME280;49406;51.044;3.766;2024-02-04T00:57:29;102684.29;;;11.27;100.00
63281;BME280;49406;51.044;3.766;2024-02-04T01:00:04;102675.31;;;11.30;100.00
63281;BME280;49406;51.044;3.766;2024-02-04T01:02:40;102668.23;;;11.28;100.00
63281;BME280;49406;51.044;3.766;2024-02-04T01:05:14;102662.48;;;11.29;100.00
63281;BME280;49406;51.044;3.766;2024-02-04T01:07:49;102663.23;;;11.31;100.00
63281;BME280;49406;51.044;3.766;2024-02-04T01:10:25;102656.84;;;11.28;100.00
63281;BME280;49406;51.044;3.766;2024-02-04T01:12:59;102663.59;;;11.31;100.00
63281;BME280;49406;51.044;3.766;2024-02-04T01:15:36;102662.48;;;11.34;100.00
63281;BME280;49406;51.044;3.766;2024-02-04T01:18:10;102665.20;;;11.37;100.00
63281;BME280;49406;51.044;3.766;2024-02-04T01:20:45;102658.33;;;11.41;100.00
63281;BME280;49406;51.044;3.766;2024-02-04T01:23:20;102665.11;;;11.44;100.00
63281;BME280;49406;51.044;3.766;2024-02-04T01:25:55;102674.11;;;11.46;100.00
63281;BME280;49406;51.044;3.766;2024-02-04T01:28:28;102681.72;;;11.49;100.00
63281;BME280;49406;51.044;3.766;2024-02-04T01:31:03;102678.98;;;11.51;100.00
63281;BME280;49406;51.044;3.766;2024-02-04T01:33:37;102675.46;;;11.51;100.00
63281;BME280;49406;51.044;3.766;2024-02-04T01:36:12;102671.67;;;11.53;100.00
63281;BME280;49406;51.044;3.766;2024-02-04T01:38:46;102667.34;;;11.54;100.00
63281;BME280;49406;51.044;3.766;2024-02-04T01:41:19;102663.16;;;11.55;100.00
63281;BME280;49406;51.044;3.766;2024-02-04T01:43:54;102660.91;;;11.56;100.00
63281;BME280;49406;51.044;3.766;2024-02-04T01:46:29;102652.77;;;11.53;100.00
63281;BME280;49406;51.044;3.766;2024-02-04T01:49:04;102655.20;;;11.58;100.00
63281;BME280;49406;51.044;3.766;2024-02-04T01:51:38;102655.81;;;11.60;100.00
63281;BME280;49406;51.044;3.766;2024-02-04T01:54:13;102660.80;;;11.62;100.00
63281;BME280;49406;51.044;3.766;2024-02-04T01:56:50;102654.88;;;11.63;100.00
63281;BME280;49406;51.044;3.766;2024-02-04T01:59:24;102658.17;;;11.68;100.00
63281;BME280;49406;51.044;3.766;2024-02-04T02:02:02;102657.46;;;11.67;100.00
63281;BME280;49406;51.044;3.766;2024-02-04T02:04:37;102657.81;;;11.68;100.00
63281;BME280;49406;51.044;3.766;2024-02-04T02:07:13;102655.91;;;11.68;100.00
63281;BME280;49406;51.044;3.766;2024-02-04T02:09:49;102659.58;;;11.68;100.00
63281;BME280;49406;51.044;3.766;2024-02-04T02:12:27;102658.90;;;11.69;100.00
63281;BME280;49406;51.044;3.766;2024-02-04T02:15:10;102660.11;;;11.68;100.00
63281;BME280;49406;51.044;3.766;2024-02-04T02:17:50;102658.80;;;11.71;100.00
63281;BME280;49406;51.044;3.766;2024-02-04T02:20:30;102660.70;;;11.70;100.00
63281;BME280;49406;51.044;3.766;2024-02-04T02:23:10;102666.15;;;11.76;100.00
63281;BME280;49406;51.044;3.766;2024-02-04T02:25:47;102662.61;;;11.75;100.00
63281;BME280;49406;51.044;3.766;2024-02-04T02:28:23;102656.28;;;11.74;100.00
63281;BME280;49406;51.044;3.766;2024-02-04T02:30:58;102657.70;;;11.75;100.00
63281;BME280;49406;51.044;3.766;2024-02-04T02:33:32;102659.77;;;11.74;100.00
63281;BME280;49406;51.044;3.766;2024-02-04T02:36:13;102657.42;;;11.77;100.00
63281;BME280;49406;51.044;3.766;2024-02-04T02:38:56;102656.97;;;11.74;100.00
63281;BME280;49406;51.044;3.766;2024-02-04T02:41:34;102653.08;;;11.67;100.00
63281;BME280;49406;51.044;3.766;2024-02-04T02:44:10;102658.11;;;11.66;100.00
63281;BME280;49406;51.044;3.766;2024-02-04T02:46:46;102664.73;;;11.65;100.00
63281;BME280;49406;51.044;3.766;2024-02-04T02:49:22;102667.08;;;11.57;100.00
63281;BME280;49406;51.044;3.766;2024-02-04T02:51:57;102664.29;;;11.51;100.00
63281;BME280;49406;51.044;3.766;2024-02-04T02:54:35;102661.18;;;11.48;100.00
63281;BME280;49406;51.044;3.766;2024-02-04T02:57:10;102662.75;;;11.42;100.00
63281;BME280;49406;51.044;3.766;2024-02-04T02:59:47;102665.29;;;11.40;100.00
63281;BME280;49406;51.044;3.766;2024-02-04T03:02:24;102660.59;;;11.36;100.00
63281;BME280;49406;51.044;3.766;2024-02-04T03:05:00;102657.86;;;11.33;100.00
63281;BME280;49406;51.044;3.766;2024-02-04T03:07:34;102650.20;;;11.28;100.00
63281;BME280;49406;51.044;3.766;2024-02-04T03:10:10;102643.19;;;11.24;100.00
63281;BME280;49406;51.044;3.766;2024-02-04T03:12:44;102637.91;;;11.23;100.00
63281;BME280;49406;51.044;3.766;2024-02-04T03:15:19;102638.98;;;11.23;100.00
63281;BME280;49406;51.044;3.766;2024-02-04T03:17:58;102631.27;;;11.23;100.00
63281;BME280;49406;51.044;3.766;2024-02-04T03:23:40;102614.23;;;11.21;100.00
63281;BME280;49406;51.044;3.766;2024-02-04T03:26:26;102619.14;;;11.22;100.00
63281;BME280;49406;51.044;3.766;2024-02-04T03:29:09;102615.95;;;11.21;100.00
63281;BME280;49406;51.044;3.766;2024-02-04T03:31:51;102617.27;;;11.18;100.00
63281;BME280;49406;51.044;3.766;2024-02-04T03:34:34;102621.13;;;11.18;100.00
63281;BME280;49406;51.044;3.766;2024-02-04T03:37:09;102626.67;;;11.22;100.00
63281;BME280;49406;51.044;3.766;2024-02-04T03:39:53;102630.55;;;11.17;100.00
63281;BME280;49406;51.044;3.766;2024-02-04T03:42:38;102632.83;;;11.17;100.00
63281;BME280;49406;51.044;3.766;2024-02-04T03:45:21;102639.02;;;11.20;100.00
63281;BME280;49406;51.044;3.766;2024-02-04T03:48:11;102633.19;;;11.18;100.00
63281;BME280;49406;51.044;3.766;2024-02-04T03:51:05;102631.04;;;11.16;100.00
63281;BME280;49406;51.044;3.766;2024-02-04T03:53:44;102633.75;;;11.19;100.00
63281;BME280;49406;51.044;3.766;2024-02-04T03:56:33;102633.50;;;11.22;100.00
63281;BME280;49406;51.044;3.766;2024-02-04T03:59:27;102632.66;;;11.23;100.00
63281;BME280;49406;51.044;3.766;2024-02-04T04:02:16;102636.77;;;11.25;100.00
63281;BME280;49406;51.044;3.766;2024-02-04T04:05:04;102628.04;;;11.26;100.00
63281;BME280;49406;51.044;3.766;2024-02-04T04:07:41;102625.90;;;11.30;100.00
63281;BME280;49406;51.044;3.766;2024-02-04T04:10:16;102628.40;;;11.31;100.00
63281;BME280;49406;51.044;3.766;2024-02-04T04:12:50;102629.98;;;11.31;100.00
63281;BME280;49406;51.044;3.766;2024-02-04T04:15:25;102624.36;;;11.31;100.00
63281;BME280;49406;51.044;3.766;2024-02-04T04:17:58;102621.52;;;11.30;100.00
63281;BME280;49406;51.044;3.766;2024-02-04T04:20:32;102628.11;;;11.33;100.00
63281;BME280;49406;51.044;3.766;2024-02-04T04:23:07;102630.25;;;11.34;100.00
63281;BME280;49406;51.044;3.766;2024-02-04T04:25:42;102625.33;;;11.39;100.00
63281;BME280;49406;51.044;3.766;2024-02-04T04:28:16;102625.23;;;11.41;100.00
63281;BME280;49406;51.044;3.766;2024-02-04T04:30:51;102623.09;;;11.40;100.00
63281;BME280;49406;51.044;3.766;2024-02-04T04:33:25;102620.93;;;11.43;100.00
63281;BME280;49406;51.044;3.766;2024-02-04T04:36:04;102616.40;;;11.44;100.00
63281;BME280;49406;51.044;3.766;2024-02-04T04:38:39;102615.58;;;11.46;100.00
63281;BME280;49406;51.044;3.766;2024-02-04T04:41:14;102612.83;;;11.47;100.00
63281;BME280;49406;51.044;3.766;2024-02-04T04:43:49;102609.24;;;11.44;100.00
63281;BME280;49406;51.044;3.766;2024-02-04T04:46:23;102603.98;;;11.44;100.00
63281;BME280;49406;51.044;3.766;2024-02-04T04:48:58;102604.30;;;11.44;100.00
63281;BME280;49406;51.044;3.766;2024-02-04T04:51:33;102599.73;;;11.43;100.00
63281;BME280;49406;51.044;3.766;2024-02-04T04:54:09;102589.80;;;11.40;100.00
63281;BME280;49406;51.044;3.766;2024-02-04T04:56:44;102589.12;;;11.41;100.00
63281;BME280;49406;51.044;3.766;2024-02-04T04:59:18;102590.33;;;11.40;100.00
63281;BME280;49406;51.044;3.766;2024-02-04T05:01:53;102584.92;;;11.41;100.00
63281;BME280;49406;51.044;3.766;2024-02-04T05:04:27;102590.67;;;11.44;100.00
63281;BME280;49406;51.044;3.766;2024-02-04T05:07:02;102591.17;;;11.44;100.00
63281;BME280;49406;51.044;3.766;2024-02-04T05:09:36;102590.98;;;11.49;100.00
63281;BME280;49406;51.044;3.766;2024-02-04T05:12:11;102597.06;;;11.53;100.00
63281;BME280;49406;51.044;3.766;2024-02-04T05:14:45;102599.56;;;11.54;100.00
63281;BME280;49406;51.044;3.766;2024-02-04T05:17:20;102591.36;;;11.55;100.00
63281;BME280;49406;51.044;3.766;2024-02-04T05:19:54;102592.98;;;11.57;100.00
63281;BME280;49406;51.044;3.766;2024-02-04T05:22:29;102594.88;;;11.56;100.00
63281;BME280;49406;51.044;3.766;2024-02-04T05:25:04;102601.79;;;11.58;100.00
63281;BME280;49406;51.044;3.766;2024-02-04T05:27:39;102600.12;;;11.55;100.00
63281;BME280;49406;51.044;3.766;2024-02-04T05:30:15;102608.41;;;11.62;100.00
63281;BME280;49406;51.044;3.766;2024-02-04T05:32:50;102603.64;;;11.56;100.00
63281;BME280;49406;51.044;3.766;2024-02-04T05:35:25;102605.83;;;11.53;100.00
63281;BME280;49406;51.044;3.766;2024-02-04T05:38:00;102601.66;;;11.49;100.00
63281;BME280;49406;51.044;3.766;2024-02-04T05:40:36;102603.75;;;11.43;100.00
63281;BME280;49406;51.044;3.766;2024-02-04T05:43:11;102600.34;;;11.35;100.00
63281;BME280;49406;51.044;3.766;2024-02-04T05:45:46;102597.69;;;11.29;100.00
63281;BME280;49406;51.044;3.766;2024-02-04T05:48:22;102596.77;;;11.27;100.00
63281;BME280;49406;51.044;3.766;2024-02-04T05:51:12;102591.73;;;11.28;100.00
63281;BME280;49406;51.044;3.766;2024-02-04T06:00:29;102583.96;;;11.17;100.00
63281;BME280;49406;51.044;3.766;2024-02-04T06:03:30;102585.40;;;11.12;100.00
63281;BME280;49406;51.044;3.766;2024-02-04T06:13:14;102609.36;;;11.11;100.00
63281;BME280;49406;51.044;3.766;2024-02-04T06:19:20;102597.84;;;11.12;100.00
63281;BME280;49406;51.044;3.766;2024-02-04T06:22:17;102593.10;;;11.12;100.00
63281;BME280;49406;51.044;3.766;2024-02-04T06:24:54;102591.79;;;11.09;100.00
63281;BME280;49406;51.044;3.766;2024-02-04T06:27:46;102599.54;;;11.11;100.00
63281;BME280;49406;51.044;3.766;2024-02-04T06:30:26;102597.95;;;11.16;100.00
63281;BME280;49406;51.044;3.766;2024-02-04T06:33:04;102590.55;;;11.20;100.00
63281;BME280;49406;51.044;3.766;2024-02-04T06:35:43;102588.64;;;11.21;100.00
63281;BME280;49406;51.044;3.766;2024-02-04T06:38:16;102587.52;;;11.18;100.00
63281;BME280;49406;51.044;3.766;2024-02-04T06:44:03;102588.44;;;11.20;100.00
63281;BME280;49406;51.044;3.766;2024-02-04T06:46:39;102581.12;;;11.21;100.00
63281;BME280;49406;51.044;3.766;2024-02-04T06:49:15;102581.41;;;11.25;100.00
63281;BME280;49406;51.044;3.766;2024-02-04T06:51:58;102581.54;;;11.28;100.00
63281;BME280;49406;51.044;3.766;2024-02-04T06:54:36;102573.48;;;11.28;100.00
63281;BME280;49406;51.044;3.766;2024-02-04T06:57:18;102578.67;;;11.26;100.00
63281;BME280;49406;51.044;3.766;2024-02-04T07:00:03;102582.47;;;11.29;100.00
63281;BME280;49406;51.044;3.766;2024-02-04T07:02:40;102581.52;;;11.33;100.00
63281;BME280;49406;51.044;3.766;2024-02-04T07:05:17;102576.84;;;11.34;100.00
63281;BME280;49406;51.044;3.766;2024-02-04T07:07:55;102574.84;;;11.37;100.00
63281;BME280;49406;51.044;3.766;2024-02-04T07:10:28;102577.73;;;11.40;100.00
63281;BME280;49406;51.044;3.766;2024-02-04T07:13:03;102577.60;;;11.41;100.00
63281;BME280;49406;51.044;3.766;2024-02-04T07:15:38;102583.80;;;11.43;100.00
63281;BME280;49406;51.044;3.766;2024-02-04T07:18:13;102591.20;;;11.44;100.00
63281;BME280;49406;51.044;3.766;2024-02-04T07:20:47;102588.02;;;11.49;100.00
63281;BME280;49406;51.044;3.766;2024-02-04T07:23:22;102583.88;;;11.51;100.00
63281;BME280;49406;51.044;3.766;2024-02-04T07:25:57;102589.84;;;11.52;100.00
63281;BME280;49406;51.044;3.766;2024-02-04T07:28:31;102591.40;;;11.51;100.00
63281;BME280;49406;51.044;3.766;2024-02-04T07:31:06;102586.05;;;11.54;100.00
63281;BME280;49406;51.044;3.766;2024-02-04T07:33:41;102587.77;;;11.53;100.00
63281;BME280;49406;51.044;3.766;2024-02-04T07:36:16;102578.19;;;11.54;100.00
63281;BME280;49406;51.044;3.766;2024-02-04T07:38:50;102575.35;;;11.53;100.00
63281;BME280;49406;51.044;3.766;2024-02-04T07:41:25;102576.01;;;11.57;100.00
63281;BME280;49406;51.044;3.766;2024-02-04T07:44:00;102567.70;;;11.60;100.00
63281;BME280;49406;51.044;3.766;2024-02-04T07:46:35;102567.30;;;11.64;100.00
63281;BME280;49406;51.044;3.766;2024-02-04T07:49:09;102565.36;;;11.64;100.00
63281;BME280;49406;51.044;3.766;2024-02-04T07:51:44;102565.08;;;11.66;100.00
63281;BME280;49406;51.044;3.766;2024-02-04T07:54:18;102560.64;;;11.64;100.00
63281;BME280;49406;51.044;3.766;2024-02-04T07:56:53;102559.14;;;11.67;100.00
63281;BME280;49406;51.044;3.766;2024-02-04T07:59:28;102558.82;;;11.68;100.00
63281;BME280;49406;51.044;3.766;2024-02-04T08:02:03;102548.02;;;11.69;100.00
63281;BME280;49406;51.044;3.766;2024-02-04T08:04:42;102543.66;;;11.70;100.00
63281;BME280;49406;51.044;3.766;2024-02-04T08:07:17;102537.73;;;11.71;100.00
63281;BME280;49406;51.044;3.766;2024-02-04T08:09:53;102538.92;;;11.70;100.00
63281;BME280;49406;51.044;3.766;2024-02-04T08:12:28;102526.08;;;11.74;100.00
63281;BME280;49406;51.044;3.766;2024-02-04T08:15:04;102525.81;;;11.76;100.00
63281;BME280;49406;51.044;3.766;2024-02-04T08:17:39;102524.89;;;11.80;100.00
63281;BME280;49406;51.044;3.766;2024-02-04T08:20:13;102529.48;;;11.81;100.00
63281;BME280;49406;51.044;3.766;2024-02-04T08:22:48;102530.15;;;11.81;100.00
63281;BME280;49406;51.044;3.766;2024-02-04T08:25:23;102532.29;;;11.81;100.00
63281;BME280;49406;51.044;3.766;2024-02-04T08:27:57;102538.59;;;11.81;100.00
63281;BME280;49406;51.044;3.766;2024-02-04T08:30:32;102545.18;;;11.85;100.00
63281;BME280;49406;51.044;3.766;2024-02-04T08:33:07;102556.99;;;11.88;100.00
63281;BME280;49406;51.044;3.766;2024-02-04T08:35:40;102554.54;;;11.87;100.00
63281;BME280;49406;51.044;3.766;2024-02-04T08:38:15;102551.20;;;11.87;100.00
63281;BME280;49406;51.044;3.766;2024-02-04T08:40:49;102553.22;;;11.90;100.00
63281;BME280;49406;51.044;3.766;2024-02-04T08:43:24;102557.23;;;11.94;100.00
63281;BME280;49406;51.044;3.766;2024-02-04T08:45:58;102559.27;;;11.98;100.00
63281;BME280;49406;51.044;3.766;2024-02-04T08:48:33;102564.23;;;12.00;100.00
63281;BME280;49406;51.044;3.766;2024-02-04T08:51:12;102561.39;;;11.99;100.00
63281;BME280;49406;51.044;3.766;2024-02-04T08:53:49;102562.61;;;11.99;100.00
63281;BME280;49406;51.044;3.766;2024-02-04T08:56:24;102561.59;;;12.00;100.00
63281;BME280;49406;51.044;3.766;2024-02-04T08:58:58;102563.23;;;12.02;100.00
63281;BME280;49406;51.044;3.766;2024-02-04T09:01:34;102566.91;;;12.02;100.00
63281;BME280;49406;51.044;3.766;2024-02-04T09:04:09;102575.04;;;12.10;100.00
63281;BME280;49406;51.044;3.766;2024-02-04T09:06:42;102569.20;;;12.14;100.00
63281;BME280;49406;51.044;3.766;2024-02-04T09:09:17;102563.45;;;12.15;100.00
63281;BME280;49406;51.044;3.766;2024-02-04T09:11:52;102559.70;;;12.19;100.00
63281;BME280;49406;51.044;3.766;2024-02-04T09:14:26;102569.04;;;12.21;100.00
63281;BME280;49406;51.044;3.766;2024-02-04T09:17:03;102561.66;;;12.20;100.00
63281;BME280;49406;51.044;3.766;2024-02-04T09:19:39;102563.09;;;12.21;100.00
63281;BME280;49406;51.044;3.766;2024-02-04T09:22:14;102570.87;;;12.29;100.00
63281;BME280;49406;51.044;3.766;2024-02-04T09:24:48;102567.06;;;12.31;100.00
63281;BME280;49406;51.044;3.766;2024-02-04T09:27:23;102569.73;;;12.32;100.00
63281;BME280;49406;51.044;3.766;2024-02-04T09:29:58;102576.52;;;12.43;100.00
63281;BME280;49406;51.044;3.766;2024-02-04T09:32:33;102571.58;;;12.43;100.00
63281;BME280;49406;51.044;3.766;2024-02-04T09:35:09;102574.27;;;12.45;100.00
63281;BME280;49406;51.044;3.766;2024-02-04T09:37:44;102565.40;;;12.42;100.00
63281;BME280;49406;51.044;3.766;2024-02-04T09:40:19;102567.03;;;12.49;100.00
63281;BME280;49406;51.044;3.766;2024-02-04T09:42:54;102560.35;;;12.55;100.00
63281;BME280;49406;51.044;3.766;2024-02-04T09:45:28;102563.11;;;12.59;100.00
63281;BME280;49406;51.044;3.766;2024-02-04T09:48:05;102564.02;;;12.67;100.00
63281;BME280;49406;51.044;3.766;2024-02-04T09:50:39;102571.73;;;12.73;100.00
63281;BME280;49406;51.044;3.766;2024-02-04T09:53:16;102566.84;;;12.75;100.00
63281;BME280;49406;51.044;3.766;2024-02-04T09:55:52;102566.63;;;12.73;100.00
63281;BME280;49406;51.044;3.766;2024-02-04T09:58:27;102564.33;;;12.78;100.00
63281;BME280;49406;51.044;3.766;2024-02-04T10:01:02;102558.52;;;12.84;100.00
63281;BME280;49406;51.044;3.766;2024-02-04T10:03:37;102563.11;;;12.86;100.00
63281;BME280;49406;51.044;3.766;2024-02-04T10:06:11;102573.88;;;12.88;100.00
63281;BME280;49406;51.044;3.766;2024-02-04T10:08:46;102575.30;;;12.88;100.00
63281;BME280;49406;51.044;3.766;2024-02-04T10:11:21;102573.00;;;12.88;100.00
63281;BME280;49406;51.044;3.766;2024-02-04T10:13:56;102575.55;;;12.92;100.00
63281;BME280;49406;51.044;3.766;2024-02-04T10:16:31;102573.41;;;12.90;100.00
63281;BME280;49406;51.044;3.766;2024-02-04T10:19:09;102573.79;;;12.91;100.00
63281;BME280;49406;51.044;3.766;2024-02-04T10:21:44;102572.93;;;12.85;100.00
63281;BME280;49406;51.044;3.766;2024-02-04T10:24:18;102575.33;;;12.83;100.00
63281;BME280;49406;51.044;3.766;2024-02-04T10:26:53;102578.33;;;12.83;100.00
63281;BME280;49406;51.044;3.766;2024-02-04T10:29:27;102573.05;;;12.83;100.00
63281;BME280;49406;51.044;3.766;2024-02-04T10:32:02;102576.43;;;12.85;100.00
63281;BME280;49406;51.044;3.766;2024-02-04T10:34:39;102571.53;;;12.85;100.00
63281;BME280;49406;51.044;3.766;2024-02-04T10:37:13;102579.31;;;12.87;100.00
63281;BME280;49406;51.044;3.766;2024-02-04T10:39:48;102576.39;;;12.90;100.00
63281;BME280;49406;51.044;3.766;2024-02-04T10:42:26;102585.83;;;12.95;100.00
63281;BME280;49406;51.044;3.766;2024-02-04T10:45:01;102588.86;;;12.97;100.00
63281;BME280;49406;51.044;3.766;2024-02-04T10:47:40;102591.35;;;12.98;100.00
63281;BME280;49406;51.044;3.766;2024-02-04T10:50:15;102580.65;;;12.99;100.00
63281;BME280;49406;51.044;3.766;2024-02-04T10:52:51;102574.67;;;12.98;100.00
63281;BME280;49406;51.044;3.766;2024-02-04T10:55:28;102572.10;;;13.00;100.00
63281;BME280;49406;51.044;3.766;2024-02-04T10:58:05;102578.84;;;13.04;100.00
63281;BME280;49406;51.044;3.766;2024-02-04T11:00:41;102573.65;;;12.99;100.00
63281;BME280;49406;51.044;3.766;2024-02-04T11:03:16;102578.23;;;13.00;100.00
63281;BME280;49406;51.044;3.766;2024-02-04T11:05:52;102569.63;;;13.00;100.00
63281;BME280;49406;51.044;3.766;2024-02-04T11:08:27;102570.34;;;13.00;100.00
63281;BME280;49406;51.044;3.766;2024-02-04T11:11:02;102569.02;;;13.04;100.00
63281;BME280;49406;51.044;3.766;2024-02-04T11:13:37;102568.70;;;13.05;100.00
63281;BME280;49406;51.044;3.766;2024-02-04T11:16:20;102572.21;;;13.06;100.00
63281;BME280;49406;51.044;3.766;2024-02-04T11:19:07;102575.94;;;13.07;100.00
63281;BME280;49406;51.044;3.766;2024-02-04T11:21:59;102572.77;;;13.07;100.00
63281;BME280;49406;51.044;3.766;2024-02-04T11:24:53;102578.14;;;13.04;100.00
63281;BME280;49406;51.044;3.766;2024-02-04T11:27:31;102572.20;;;13.11;100.00
63281;BME280;49406;51.044;3.766;2024-02-04T11:30:08;102567.71;;;13.14;100.00
63281;BME280;49406;51.044;3.766;2024-02-04T11:32:44;102569.66;;;13.14;100.00
63281;BME280;49406;51.044;3.766;2024-02-04T11:35:21;102565.42;;;13.14;100.00
63281;BME280;49406;51.044;3.766;2024-02-04T11:37:56;102562.78;;;13.13;100.00
63281;BME280;49406;51.044;3.766;2024-02-04T11:40:35;102563.42;;;13.12;100.00
63281;BME280;49406;51.044;3.766;2024-02-04T11:43:12;102561.12;;;13.11;100.00
63281;BME280;49406;51.044;3.766;2024-02-04T11:45:46;102560.50;;;13.07;100.00
63281;BME280;49406;51.044;3.766;2024-02-04T11:48:28;102551.55;;;13.01;100.00
63281;BME280;49406;51.044;3.766;2024-02-04T11:51:03;102548.89;;;12.99;100.00
63281;BME280;49406;51.044;3.766;2024-02-04T11:53:38;102546.34;;;12.96;100.00
63281;BME280;49406;51.044;3.766;2024-02-04T11:56:13;102550.52;;;13.01;100.00
63281;BME280;49406;51.044;3.766;2024-02-04T11:58:48;102542.13;;;13.02;100.00
63281;BME280;49406;51.044;3.766;2024-02-04T12:01:24;102548.46;;;13.03;100.00
63281;BME280;49406;51.044;3.766;2024-02-04T12:03:59;102547.30;;;13.12;100.00
63281;BME280;49406;51.044;3.766;2024-02-04T12:06:43;102544.48;;;13.13;100.00
63281;BME280;49406;51.044;3.766;2024-02-04T12:09:19;102545.29;;;13.16;100.00
63281;BME280;49406;51.044;3.766;2024-02-04T12:11:56;102536.20;;;13.18;100.00
63281;BME280;49406;51.044;3.766;2024-02-04T12:14:30;102536.61;;;13.20;100.00
63281;BME280;49406;51.044;3.766;2024-02-04T12:17:09;102529.44;;;13.14;100.00
63281;BME280;49406;51.044;3.766;2024-02-04T12:19:44;102530.08;;;13.11;100.00
63281;BME280;49406;51.044;3.766;2024-02-04T12:22:19;102531.81;;;13.11;100.00
63281;BME280;49406;51.044;3.766;2024-02-04T12:24:54;102528.27;;;13.17;100.00
63281;BME280;49406;51.044;3.766;2024-02-04T12:27:28;102524.54;;;13.15;100.00
63281;BME280;49406;51.044;3.766;2024-02-04T12:30:03;102531.65;;;13.12;100.00
63281;BME280;49406;51.044;3.766;2024-02-04T12:32:40;102531.23;;;13.10;100.00
63281;BME280;49406;51.044;3.766;2024-02-04T12:35:16;102525.60;;;13.09;100.00
63281;BME280;49406;51.044;3.766;2024-02-04T12:37:54;102519.59;;;13.08;100.00
63281;BME280;49406;51.044;3.766;2024-02-04T12:40:30;102518.45;;;13.04;100.00
63281;BME280;49406;51.044;3.766;2024-02-04T12:43:05;102510.48;;;13.09;100.00
63281;BME280;49406;51.044;3.766;2024-02-04T12:45:39;102503.27;;;13.15;100.00
63281;BME280;49406;51.044;3.766;2024-02-04T12:48:16;102495.80;;;13.17;100.00
63281;BME280;49406;51.044;3.766;2024-02-04T12:50:54;102491.36;;;13.22;100.00
63281;BME280;49406;51.044;3.766;2024-02-04T12:53:28;102495.58;;;13.22;100.00
63281;BME280;49406;51.044;3.766;2024-02-04T12:56:03;102497.34;;;13.22;100.00
63281;BME280;49406;51.044;3.766;2024-02-04T12:58:44;102498.14;;;13.20;100.00
63281;BME280;49406;51.044;3.766;2024-02-04T13:01:19;102496.69;;;13.18;100.00
63281;BME280;49406;51.044;3.766;2024-02-04T13:03:56;102493.55;;;13.18;100.00
63281;BME280;49406;51.044;3.766;2024-02-04T13:06:29;102495.92;;;13.16;100.00
63281;BME280;49406;51.044;3.766;2024-02-04T13:09:04;102497.54;;;13.10;100.00
63281;BME280;49406;51.044;3.766;2024-02-04T13:11:42;102504.04;;;13.10;100.00
63281;BME280;49406;51.044;3.766;2024-02-04T13:14:16;102497.63;;;13.07;100.00
63281;BME280;49406;51.044;3.766;2024-02-04T13:16:49;102501.31;;;13.07;100.00
63281;BME280;49406;51.044;3.766;2024-02-04T13:19:24;102495.36;;;13.08;100.00
63281;BME280;49406;51.044;3.766;2024-02-04T13:21:58;102490.99;;;13.09;100.00
63281;BME280;49406;51.044;3.766;2024-02-04T13:24:33;102484.57;;;13.11;100.00
63281;BME280;49406;51.044;3.766;2024-02-04T13:27:08;102479.36;;;13.07;100.00
63281;BME280;49406;51.044;3.766;2024-02-04T13:29:43;102469.61;;;13.10;100.00
63281;BME280;49406;51.044;3.766;2024-02-04T13:32:16;102473.90;;;13.13;100.00
63281;BME280;49406;51.044;3.766;2024-02-04T13:34:50;102470.17;;;13.18;100.00
63281;BME280;49406;51.044;3.766;2024-02-04T13:37:25;102469.05;;;13.22;100.00
63281;BME280;49406;51.044;3.766;2024-02-04T13:40:00;102464.54;;;13.25;100.00
63281;BME280;49406;51.044;3.766;2024-02-04T13:42:35;102462.79;;;13.25;100.00
63281;BME280;49406;51.044;3.766;2024-02-04T13:45:10;102459.91;;;13.29;100.00
63281;BME280;49406;51.044;3.766;2024-02-04T13:47:46;102458.08;;;13.33;100.00
63281;BME280;49406;51.044;3.766;2024-02-04T13:50:21;102457.27;;;13.37;100.00
63281;BME280;49406;51.044;3.766;2024-02-04T13:52:56;102445.08;;;13.34;100.00